Time;durP1;ratioP1;P1;durP2;ratioP2;P2;SDS_P1;SDS_P2;PMS_P1;PMS_P2;Temp;Humidity;BMP_temperature;BMP_pressure;BME280_temperature;BME280_humidity;BME280_pressure;Samples;Min_cycle;Max_cycle;Signal;HPM_P1;HPM_P2
2022/09/26 00:03:17;;;;;;;1.52;1.20;;;17.80;71.80;;;;;;10366349;28;20038;-60
2022/09/26 00:08:18;;;;;;;3.35;1.27;;;17.80;71.80;;;;;;10366634;28;20065;-60
2022/09/26 00:13:18;;;;;;;2.53;1.42;;;17.70;71.80;;;;;;10367348;28;20061;-60
2022/09/26 00:18:19;;;;;;;2.75;1.23;;;17.70;71.80;;;;;;10377917;28;20445;-60
2022/09/26 00:23:20;;;;;;;2.88;1.70;;;17.70;71.80;;;;;;10365281;28;20029;-60
2022/09/26 00:28:21;;;;;;;1.95;1.23;;;17.70;71.80;;;;;;10366061;28;20046;-60
2022/09/26 00:33:23;;;;;;;2.08;1.50;;;17.70;71.80;;;;;;10366137;28;20109;-60
2022/09/26 00:38:24;;;;;;;4.20;1.80;;;17.70;71.70;;;;;;10364853;28;20494;-60
2022/09/26 00:43:46;;;;;;;3.30;1.40;;;17.70;71.70;;;;;;10364522;28;20053;-60
2022/09/26 00:49:04;;;;;;;2.80;1.60;;;17.70;71.70;;;;;;10379158;28;20100;-60
2022/09/26 00:54:12;;;;;;;3.03;0.93;;;17.70;71.80;;;;;;10352651;28;20807;-61
2022/09/26 00:59:29;;;;;;;2.38;1.10;;;17.70;71.80;;;;;;10364403;28;20434;-60
2022/09/26 01:04:34;;;;;;;3.17;1.25;;;17.70;71.80;;;;;;10364215;28;20060;-60
2022/09/26 01:09:36;;;;;;;2.20;1.20;;;17.70;71.70;;;;;;10363425;28;20022;-60
2022/09/26 01:14:40;;;;;;;2.58;1.25;;;17.70;71.70;;;;;;10362927;28;20022;-60
2022/09/26 01:20:10;;;;;;;2.03;1.00;;;17.70;71.70;;;;;;10384548;28;20037;-60
2022/09/26 01:25:51;;;;;;;2.85;1.23;;;17.70;71.70;;;;;;10365106;28;20034;-60
2022/09/26 01:31:12;;;;;;;1.38;0.90;;;17.60;71.70;;;;;;10365128;28;20014;-60
2022/09/26 01:36:27;;;;;;;2.35;1.40;;;17.70;72.30;;;;;;10379379;28;20360;-60
2022/09/26 01:42:42;;;;;;;1.70;1.05;;;17.70;71.60;;;;;;10363082;28;20042;-60
2022/09/26 01:47:44;;;;;;;3.45;1.70;;;17.70;71.60;;;;;;10364078;28;20041;-61
2022/09/26 01:53:10;;;;;;;2.15;1.30;;;17.70;71.50;;;;;;10363678;28;20121;-60
2022/09/26 01:58:27;;;;;;;2.63;1.30;;;17.70;71.40;;;;;;10363901;28;20030;-61
2022/09/26 02:03:35;;;;;;;3.63;1.02;;;17.70;71.90;;;;;;10362067;28;20018;-60
2022/09/26 02:08:41;;;;;;;2.17;1.25;;;17.70;71.40;;;;;;10361732;28;20028;-60
2022/09/26 02:14:06;;;;;;;2.00;1.23;;;17.70;71.40;;;;;;10391811;28;20097;-60
2022/09/26 02:19:25;;;;;;;1.70;1.00;;;17.70;71.40;;;;;;10361870;28;20029;-60
2022/09/26 02:24:27;;;;;;;1.63;0.85;;;17.60;71.40;;;;;;10361856;28;20115;-60
2022/09/26 02:29:28;;;;;;;1.80;0.93;;;17.70;71.50;;;;;;10345364;28;20032;-60
2022/09/26 02:34:29;;;;;;;2.45;1.00;;;17.60;71.40;;;;;;10361736;28;20064;-60
2022/09/26 02:39:29;;;;;;;3.10;1.50;;;17.60;71.50;;;;;;10362816;28;20061;-60
2022/09/26 02:44:44;;;;;;;1.38;1.17;;;17.60;72.10;;;;;;10361542;28;20737;-60
2022/09/26 02:50:28;;;;;;;1.70;1.15;;;17.60;71.50;;;;;;10377767;28;20080;-60
2022/09/26 02:56:00;;;;;;;1.52;1.15;;;17.60;71.60;;;;;;10330171;28;20034;-60
2022/09/26 03:01:28;;;;;;;1.85;1.25;;;17.60;71.60;;;;;;10371015;28;20381;-60
2022/09/26 03:06:43;;;;;;;2.95;1.20;;;17.60;71.50;;;;;;10386816;28;20021;-60
2022/09/26 03:11:45;;;;;;;1.30;1.00;;;17.60;71.40;;;;;;10358396;28;20030;-60
2022/09/26 03:16:49;;;;;;;1.75;1.25;;;17.60;71.40;;;;;;10379175;28;20068;-60
2022/09/26 03:21:50;;;;;;;1.58;1.20;;;17.60;71.40;;;;;;10361191;28;20038;-59
2022/09/26 03:26:51;;;;;;;1.50;0.80;;;17.60;71.40;;;;;;10367926;28;20495;-60
2022/09/26 03:31:52;;;;;;;2.08;0.90;;;17.60;71.40;;;;;;10367982;28;20338;-59
2022/09/26 03:36:53;;;;;;;1.55;1.00;;;17.60;71.50;;;;;;10368721;28;20053;-59
2022/09/26 03:41:56;;;;;;;1.95;1.15;;;17.60;71.40;;;;;;10367010;28;20050;-59
2022/09/26 03:46:56;;;;;;;2.67;1.25;;;17.60;71.40;;;;;;10366553;28;20033;-60
2022/09/26 03:51:57;;;;;;;1.55;1.00;;;17.60;71.30;;;;;;10367919;28;20516;-59
2022/09/26 03:56:58;;;;;;;1.83;1.10;;;17.60;71.40;;;;;;10366210;28;20111;-61
2022/09/26 04:01:58;;;;;;;2.35;1.27;;;17.50;71.30;;;;;;10365737;28;20120;-60
2022/09/26 04:06:59;;;;;;;1.83;1.08;;;17.60;71.20;;;;;;10365272;28;20100;-60
2022/09/26 04:12:00;;;;;;;2.15;0.75;;;17.50;71.30;;;;;;10367306;28;20109;-60
2022/09/26 04:17:01;;;;;;;1.88;1.25;;;17.60;71.40;;;;;;10367322;28;20033;-60
2022/09/26 04:22:02;;;;;;;1.20;0.80;;;17.50;71.40;;;;;;10370723;28;20104;-60
2022/09/26 04:27:04;;;;;;;1.20;0.75;;;17.50;71.30;;;;;;10364165;28;20018;-60
2022/09/26 04:32:05;;;;;;;2.90;1.33;;;17.50;71.20;;;;;;10365344;28;20055;-60
2022/09/26 04:37:06;;;;;;;1.38;0.90;;;17.50;71.00;;;;;;10365255;28;20521;-59
2022/09/26 04:42:06;;;;;;;1.75;1.00;;;17.50;71.00;;;;;;10366122;28;20073;-60
2022/09/26 04:47:07;;;;;;;3.03;1.40;;;17.50;71.00;;;;;;10366099;28;20401;-60
2022/09/26 04:52:08;;;;;;;2.10;1.02;;;17.50;71.00;;;;;;10364363;28;20510;-59
2022/09/26 04:57:08;;;;;;;1.83;0.80;;;17.50;71.00;;;;;;10364322;28;20652;-59
2022/09/26 05:02:09;;;;;;;1.83;1.00;;;17.50;71.20;;;;;;10366010;28;20038;-60
2022/09/26 05:07:10;;;;;;;2.03;0.80;;;17.50;71.20;;;;;;10379662;28;20109;-60
2022/09/26 05:12:12;;;;;;;17.50;2.08;;;17.50;71.10;;;;;;10364649;28;20056;-58
2022/09/26 05:17:13;;;;;;;14.75;2.33;;;17.50;71.70;;;;;;10365048;28;20033;-59
2022/09/26 05:22:14;;;;;;;15.23;2.63;;;17.60;71.90;;;;;;10368016;28;20026;-57
2022/09/26 05:27:18;;;;;;;12.13;2.25;;;17.80;72.00;;;;;;10359296;28;20334;-56
2022/09/26 05:32:19;;;;;;;14.32;2.28;;;17.80;72.50;;;;;;10359448;28;20024;-57
2022/09/26 05:37:20;;;;;;;10.02;2.63;;;17.80;72.50;;;;;;10359003;28;20029;-59
2022/09/26 05:42:20;;;;;;;12.55;2.03;;;17.80;72.70;;;;;;10357364;28;20046;-58
2022/09/26 05:47:22;;;;;;;15.02;2.40;;;17.80;72.90;;;;;;10356044;28;20080;-57
2022/09/26 05:52:22;;;;;;;17.27;4.43;;;17.80;72.90;;;;;;10359888;28;20022;-59
2022/09/26 05:57:23;;;;;;;13.98;2.65;;;17.80;72.70;;;;;;10360054;28;20397;-58
2022/09/26 06:02:24;;;;;;;12.43;2.75;;;17.80;72.80;;;;;;10359093;28;20298;-60
2022/09/26 06:07:25;;;;;;;18.67;4.03;;;17.70;73.00;;;;;;10357766;28;20029;-59
2022/09/26 06:12:26;;;;;;;15.73;3.33;;;17.70;73.00;;;;;;10360856;28;20065;-61
2022/09/26 06:17:26;;;;;;;12.05;2.58;;;17.80;73.00;;;;;;10364511;28;20025;-60
2022/09/26 06:22:27;;;;;;;17.30;3.22;;;17.80;72.70;;;;;;10366246;28;21117;-60
2022/09/26 06:27:28;;;;;;;11.57;2.95;;;17.70;72.70;;;;;;10357111;28;20164;-60
2022/09/26 06:32:29;;;;;;;10.60;2.67;;;17.60;72.90;;;;;;10364565;28;20105;-60
2022/09/26 06:37:29;;;;;;;9.93;2.60;;;17.60;72.80;;;;;;10367150;28;20492;-60
2022/09/26 06:42:36;;;;;;;8.32;2.25;;;17.60;72.70;;;;;;10381775;28;20756;-60
2022/09/26 06:47:37;;;;;;;6.72;1.83;;;17.60;72.70;;;;;;10368748;28;20033;-60
2022/09/26 06:52:38;;;;;;;8.55;2.58;;;17.50;72.70;;;;;;10368223;28;20202;-60
2022/09/26 06:57:41;;;;;;;11.73;2.53;;;17.60;72.80;;;;;;10368759;28;20117;-60
2022/09/26 07:02:53;;;;;;;6.72;2.53;;;17.50;72.70;;;;;;10366863;28;20448;-59
2022/09/26 07:07:54;;;;;;;6.72;2.17;;;17.50;72.50;;;;;;10366993;28;20041;-59
2022/09/26 07:13:02;;;;;;;7.60;2.30;;;17.50;72.40;;;;;;10369056;28;20102;-59
2022/09/26 07:18:05;;;;;;;12.27;2.57;;;17.50;72.40;;;;;;10365445;28;20481;-60
2022/09/26 07:23:08;;;;;;;9.60;3.03;;;17.50;72.30;;;;;;10365875;28;20614;-60
2022/09/26 07:28:09;;;;;;;16.13;3.13;;;17.50;72.50;;;;;;10364778;28;20018;-61
2022/09/26 07:33:11;;;;;;;22.77;4.80;;;17.50;72.70;;;;;;10364687;28;20026;-60
2022/09/26 07:38:12;;;;;;;13.65;3.35;;;17.50;72.70;;;;;;10366996;28;20837;-60
2022/09/26 07:43:12;;;;;;;18.58;4.82;;;17.50;72.70;;;;;;10365967;28;20065;-60
2022/09/26 07:53:32;;;;;;;19.77;3.73;;;17.60;73.00;;;;;;10366365;28;20650;-59
2022/09/26 07:58:34;;;;;;;28.23;6.95;;;17.60;73.00;;;;;;10369796;28;20030;-61
2022/09/26 08:03:35;;;;;;;24.50;4.35;;;17.60;73.10;;;;;;10363504;28;20034;-59
2022/09/26 08:08:36;;;;;;;22.60;4.32;;;17.60;73.60;;;;;;10380395;28;20517;-59
2022/09/26 08:13:42;;;;;;;17.65;4.15;;;17.60;72.80;;;;;;10364529;28;20156;-60
2022/09/26 08:18:42;;;;;;;15.65;3.35;;;17.60;72.80;;;;;;10375299;28;20021;-60
2022/09/26 08:23:44;;;;;;;22.83;3.28;;;17.60;73.10;;;;;;10363617;28;20117;-65
2022/09/26 08:28:45;;;;;;;20.52;3.25;;;17.60;72.90;;;;;;10365324;28;20018;-61
2022/09/26 08:33:46;;;;;;;21.10;4.38;;;17.60;73.20;;;;;;10350286;28;20317;-59
2022/09/26 08:38:48;;;;;;;17.23;4.72;;;17.60;72.90;;;;;;10363218;28;20042;-59
2022/09/26 08:44:33;;;;;;;23.50;4.93;;;17.60;72.80;;;;;;10364705;28;20034;-60
2022/09/26 08:49:47;;;;;;;9.57;2.95;;;17.50;72.70;;;;;;10377500;28;20038;-60
2022/09/26 08:54:50;;;;;;;14.15;3.58;;;17.60;72.70;;;;;;10364723;28;20365;-60
2022/09/26 08:59:53;;;;;;;10.20;2.33;;;17.50;72.60;;;;;;10374345;28;20083;-60
2022/09/26 09:05:16;;;;;;;8.55;2.33;;;17.50;72.60;;;;;;10366873;28;20452;-59
2022/09/26 09:10:30;;;;;;;14.35;2.70;;;17.50;72.50;;;;;;10364893;28;20018;-59
2022/09/26 09:15:52;;;;;;;8.90;2.38;;;17.50;72.50;;;;;;10362493;28;20520;-59
2022/09/26 09:21:08;;;;;;;6.10;2.40;;;17.50;72.40;;;;;;10373897;28;20148;-59
2022/09/26 09:26:31;;;;;;;7.20;2.20;;;17.50;72.40;;;;;;10364817;28;20692;-59
2022/09/26 09:31:39;;;;;;;8.57;2.22;;;17.50;72.30;;;;;;10363172;28;20034;-59
2022/09/26 09:36:52;;;;;;;14.32;3.13;;;17.50;72.40;;;;;;10362352;28;20044;-59
2022/09/26 09:42:02;;;;;;;16.33;3.03;;;17.50;72.40;;;;;;10362231;28;20100;-59
2022/09/26 09:47:13;;;;;;;14.48;3.42;;;17.50;72.70;;;;;;10360419;28;20030;-59
2022/09/26 09:52:54;;;;;;;15.43;3.30;;;17.40;72.80;;;;;;10360540;28;20507;-57
2022/09/26 09:58:33;;;;;;;28.35;4.85;;;17.40;72.90;;;;;;10359042;28;20108;-58
2022/09/26 10:04:20;;;;;;;16.33;3.00;;;17.50;72.80;;;;;;10359844;28;20033;-58
2022/09/26 10:09:28;;;;;;;18.33;4.70;;;17.50;72.50;;;;;;10361108;28;20025;-60
2022/09/26 10:14:52;;;;;;;21.10;4.85;;;17.40;72.60;;;;;;10360314;28;20072;-59
2022/09/26 10:19:53;;;;;;;34.67;6.30;;;17.40;72.60;;;;;;10360495;28;20022;-59
2022/09/26 10:25:18;;;;;;;25.90;4.47;;;17.50;72.90;;;;;;10361476;28;20065;-58
2022/09/26 10:30:28;;;;;;;24.50;4.82;;;17.50;72.60;;;;;;10359852;28;20240;-60
2022/09/26 10:35:42;;;;;;;31.00;6.07;;;17.40;72.60;;;;;;10376254;28;20045;-60
2022/09/26 10:40:53;;;;;;;19.02;3.47;;;17.50;72.80;;;;;;10359293;28;20128;-60
2022/09/26 10:46:03;;;;;;;17.02;4.97;;;17.50;72.90;;;;;;10373638;28;20040;-60
2022/09/26 10:51:06;;;;;;;17.77;4.70;;;17.50;72.60;;;;;;10362828;28;20029;-59
2022/09/26 10:56:12;;;;;;;34.00;6.50;;;17.50;72.90;;;;;;10360473;28;20072;-60
2022/09/26 11:01:20;;;;;;;22.75;5.25;;;17.50;73.20;;;;;;10353996;28;20030;-60
2022/09/26 11:06:29;;;;;;;28.35;4.30;;;17.60;73.40;;;;;;10359249;28;20037;-59
2022/09/26 11:11:35;;;;;;;18.95;4.07;;;17.60;73.20;;;;;;10360021;28;20026;-60
2022/09/26 11:16:42;;;;;;;18.25;4.15;;;17.60;73.50;;;;;;10360298;28;20025;-59
2022/09/26 11:22:07;;;;;;;19.40;3.88;;;17.60;73.70;;;;;;10392784;28;20025;-58
2022/09/26 11:27:32;;;;;;;20.08;4.43;;;17.60;73.20;;;;;;10381926;28;20033;-60
2022/09/26 11:32:39;;;;;;;22.35;5.03;;;17.90;72.00;;;;;;10382147;28;20033;-59
2022/09/26 11:38:07;;;;;;;21.83;4.78;;;17.70;72.70;;;;;;10365158;28;20022;-60
2022/09/26 11:43:56;;;;;;;12.05;4.82;;;17.60;73.00;;;;;;10366339;28;20057;-60
2022/09/26 11:49:33;;;;;;;32.67;5.63;;;17.50;73.10;;;;;;10350297;28;20378;-58
2022/09/26 11:55:05;;;;;;;10.60;3.85;;;17.50;73.20;;;;;;10366633;28;20018;-59
2022/09/26 12:00:26;;;;;;;13.50;2.67;;;17.50;73.00;;;;;;10365950;28;20441;-59
2022/09/26 12:05:51;;;;;;;11.20;2.67;;;17.50;73.10;;;;;;10364123;28;20461;-59
2022/09/26 12:11:16;;;;;;;11.95;3.40;;;17.40;73.00;;;;;;10380306;28;20677;-59
2022/09/26 12:16:34;;;;;;;8.82;2.55;;;17.40;73.00;;;;;;10366195;28;20480;-60
2022/09/26 12:22:28;;;;;;;14.95;4.35;;;17.40;72.90;;;;;;10421595;28;20121;-59
2022/09/26 12:28:09;;;;;;;12.02;3.33;;;17.40;72.80;;;;;;10361636;28;20038;-60
2022/09/26 12:33:59;;;;;;;8.35;2.53;;;17.40;72.80;;;;;;10364533;28;20018;-58
2022/09/26 12:39:56;;;;;;;11.48;3.10;;;17.40;72.70;;;;;;10372922;28;20468;-59
2022/09/26 12:45:16;;;;;;;6.90;2.42;;;17.40;72.70;;;;;;10419538;28;20487;-58
2022/09/26 12:50:56;;;;;;;7.20;2.35;;;17.40;72.60;;;;;;10405119;28;20469;-59
2022/09/26 12:56:05;;;;;;;9.05;2.55;;;17.40;72.60;;;;;;10404328;28;20021;-59
2022/09/26 13:02:08;;;;;;;10.32;2.67;;;17.40;72.60;;;;;;10386597;28;20022;-57
2022/09/26 13:07:30;;;;;;;6.78;2.50;;;17.40;72.50;;;;;;10362931;28;20057;-58
2022/09/26 13:12:57;;;;;;;8.38;3.05;;;17.40;72.50;;;;;;10360907;28;20489;-58
2022/09/26 13:18:13;;;;;;;7.55;1.95;;;17.40;72.50;;;;;;10361645;28;20117;-58
2022/09/26 13:23:33;;;;;;;7.80;2.20;;;17.40;72.50;;;;;;10358139;28;20665;-59
2022/09/26 13:28:39;;;;;;;;;;;17.40;72.40;;;;;;10376233;28;20014;-59
2022/09/26 13:34:23;;;;;;;9.85;3.40;;;17.30;72.30;;;;;;10376603;28;19936;-58
2022/09/26 13:39:50;;;;;;;10.50;2.67;;;17.40;72.40;;;;;;10284826;28;20404;-58
2022/09/26 13:45:15;;;;;;;5.63;1.70;;;17.40;72.30;;;;;;10358904;28;20604;-59
2022/09/26 13:50:49;;;;;;;5.38;2.28;;;17.30;72.50;;;;;;10360628;28;20091;-58
2022/09/26 13:56:29;;;;;;;7.18;2.03;;;17.30;72.30;;;;;;10361277;28;20045;-58
2022/09/26 14:01:32;;;;;;;7.65;1.73;;;17.30;72.40;;;;;;10376581;28;20042;-58
2022/09/26 14:06:32;;;;;;;7.45;2.13;;;17.30;72.40;;;;;;10361888;28;20022;-58
2022/09/26 14:11:50;;;;;;;6.22;2.22;;;17.30;72.30;;;;;;10360294;28;20034;-60
2022/09/26 14:17:33;;;;;;;29.73;4.82;;;17.30;72.30;;;;;;10320227;28;20102;-59
2022/09/26 14:22:36;;;;;;;14.20;1.98;;;17.30;73.00;;;;;;10313533;28;20490;-58
2022/09/26 14:27:37;;;;;;;25.95;4.28;;;17.40;72.60;;;;;;10334997;28;20025;-58
2022/09/26 14:32:43;;;;;;;24.02;4.32;;;17.40;73.00;;;;;;10335033;28;20037;-60
2022/09/26 14:37:49;;;;;;;34.40;6.18;;;17.40;73.90;;;;;;10335389;28;20537;-63
2022/09/26 14:43:12;;;;;;;31.52;5.18;;;17.40;73.30;;;;;;10361897;28;20030;-62
2022/09/26 14:48:36;;;;;;;27.33;4.50;;;17.40;73.30;;;;;;10360816;28;20527;-61
2022/09/26 14:53:40;;;;;;;32.45;5.53;;;17.50;73.50;;;;;;10364539;28;20581;-52
2022/09/26 14:58:41;;;;;;;19.48;4.93;;;17.50;73.40;;;;;;10366118;28;20030;-52
2022/09/26 15:03:47;;;;;;;26.05;6.05;;;17.40;73.40;;;;;;10368163;28;20606;-62
2022/09/26 15:08:49;;;;;;;40.80;30.95;;;17.40;73.50;;;;;;10366669;28;20212;-58
2022/09/26 15:13:51;;;;;;;33.72;24.40;;;17.50;75.20;;;;;;10397847;28;20077;-59
2022/09/26 15:19:03;;;;;;;38.55;24.33;;;17.60;74.50;;;;;;10366753;28;20021;-59
2022/09/26 15:24:22;;;;;;;34.55;24.15;;;17.70;74.30;;;;;;10366736;28;20034;-59
2022/09/26 15:29:24;;;;;;;31.90;24.60;;;17.70;74.10;;;;;;10371121;28;20026;-59
2022/09/26 15:34:32;;;;;;;29.25;18.77;;;17.70;74.90;;;;;;10365591;28;20033;-58
2022/09/26 15:39:37;;;;;;;30.42;17.95;;;17.60;72.90;;;;;;10366205;28;20118;-59
2022/09/26 15:44:47;;;;;;;24.63;16.60;;;17.60;72.90;;;;;;10365583;28;20056;-58
2022/09/26 15:50:21;;;;;;;46.58;19.33;;;17.60;73.10;;;;;;10365659;28;20369;-58
2022/09/26 15:55:27;;;;;;;27.42;14.30;;;17.50;73.10;;;;;;10373374;28;20022;-58
2022/09/26 16:00:36;;;;;;;37.60;15.00;;;17.70;75.20;;;;;;10372640;28;20018;-59
2022/09/26 16:05:37;;;;;;;22.83;14.27;;;17.80;75.80;;;;;;10374870;28;20052;-57
2022/09/26 16:10:37;;;;;;;39.45;16.75;;;17.80;75.50;;;;;;10364537;28;20025;-57
2022/09/26 16:15:39;;;;;;;33.05;16.17;;;17.80;75.20;;;;;;10365165;28;20033;-57
2022/09/26 16:20:40;;;;;;;30.30;14.60;;;17.80;75.30;;;;;;10366258;28;20034;-57
2022/09/26 16:25:46;;;;;;;17.98;13.88;;;17.80;75.50;;;;;;10367370;28;20030;-58
2022/09/26 16:30:58;;;;;;;24.85;12.82;;;17.80;75.30;;;;;;10373863;28;20593;-58
2022/09/26 16:36:25;;;;;;;26.35;12.82;;;17.80;75.10;;;;;;10372782;28;20033;-61
2022/09/26 16:41:35;;;;;;;23.83;14.73;;;17.80;75.20;;;;;;10373440;28;20611;-59
2022/09/26 16:46:37;;;;;;;26.83;12.65;;;17.80;75.00;;;;;;10355445;28;20002;-59
2022/09/26 16:51:39;;;;;;;25.02;12.52;;;17.70;75.40;;;;;;10362066;28;20108;-58
2022/09/26 16:56:42;;;;;;;17.08;10.60;;;17.70;75.30;;;;;;10370947;28;20026;-57
2022/09/26 17:01:53;;;;;;;28.17;12.30;;;17.70;75.30;;;;;;10360908;28;20026;-57
2022/09/26 17:06:54;;;;;;;23.02;11.60;;;17.60;75.10;;;;;;10371196;28;20026;-59
2022/09/26 17:12:27;;;;;;;19.15;10.40;;;17.60;75.50;;;;;;10344612;28;20109;-60
2022/09/26 17:17:29;;;;;;;19.13;9.77;;;17.60;75.40;;;;;;10349022;28;20100;-59
2022/09/26 17:22:30;;;;;;;14.45;9.10;;;17.60;75.50;;;;;;10364228;28;20542;-60
2022/09/26 17:27:33;;;;;;;33.08;11.07;;;17.60;75.70;;;;;;10363113;28;20022;-60
2022/09/26 17:32:37;;;;;;;17.95;10.63;;;17.60;75.50;;;;;;10364130;28;20049;-60
2022/09/26 17:37:38;;;;;;;16.55;8.85;;;17.50;75.40;;;;;;10363183;28;20022;-59
2022/09/26 17:42:38;;;;;;;16.65;8.75;;;17.50;75.20;;;;;;10362477;28;20129;-60
2022/09/26 17:47:40;;;;;;;16.52;8.73;;;17.50;75.10;;;;;;10364119;28;20042;-59
2022/09/26 17:52:41;;;;;;;12.98;7.07;;;17.50;75.30;;;;;;10362865;28;20021;-59
2022/09/26 17:57:42;;;;;;;23.33;9.15;;;17.50;75.30;;;;;;10362673;28;20022;-59
2022/09/26 18:02:45;;;;;;;18.10;7.38;;;17.40;75.30;;;;;;10363029;28;20053;-59
2022/09/26 18:07:51;;;;;;;11.95;6.07;;;17.50;75.10;;;;;;10364240;28;20022;-60
2022/09/26 18:12:58;;;;;;;10.38;6.43;;;17.50;75.50;;;;;;10361245;28;20029;-60
2022/09/26 18:18:00;;;;;;;9.57;5.18;;;17.50;74.80;;;;;;10362605;28;20061;-60
2022/09/26 18:23:01;;;;;;;15.30;6.32;;;17.50;74.70;;;;;;10378853;28;20633;-60
2022/09/26 18:28:07;;;;;;;12.90;5.93;;;17.40;74.70;;;;;;10380435;28;20022;-60
2022/09/26 18:33:11;;;;;;;14.32;5.95;;;17.40;74.60;;;;;;10369912;28;20024;-60
2022/09/26 18:38:12;;;;;;;10.55;5.45;;;17.40;74.70;;;;;;10363008;28;20060;-60
2022/09/26 18:43:21;;;;;;;12.43;5.40;;;17.40;74.70;;;;;;10365739;28;20038;-60
2022/09/26 18:48:31;;;;;;;8.05;4.75;;;17.40;74.70;;;;;;10366852;28;20010;-60
2022/09/26 18:53:36;;;;;;;16.15;5.40;;;17.40;74.70;;;;;;10368360;28;20033;-60
2022/09/26 18:58:38;;;;;;;19.80;6.18;;;17.40;74.80;;;;;;10369848;28;20363;-60
2022/09/26 19:03:43;;;;;;;12.45;4.57;;;17.40;74.90;;;;;;10354963;28;20061;-60
2022/09/26 19:08:50;;;;;;;11.77;4.57;;;17.50;75.00;;;;;;10367264;28;20570;-60
2022/09/26 19:13:56;;;;;;;12.52;4.38;;;17.50;74.90;;;;;;10352763;28;20041;-60
2022/09/26 19:18:57;;;;;;;13.10;4.90;;;17.50;75.50;;;;;;10364986;28;20108;-60
2022/09/26 19:24:04;;;;;;;12.63;4.13;;;17.40;74.80;;;;;;10367797;28;20038;-60
2022/09/26 19:29:10;;;;;;;9.63;3.83;;;17.50;75.00;;;;;;10366730;28;20018;-60
2022/09/26 19:34:16;;;;;;;11.55;4.32;;;17.50;74.90;;;;;;10349679;28;20061;-60
2022/09/26 19:39:18;;;;;;;8.25;4.25;;;17.50;74.70;;;;;;10365725;28;20053;-61
2022/09/26 19:44:18;;;;;;;8.65;3.40;;;17.40;74.80;;;;;;10367421;28;20022;-61
2022/09/26 19:49:27;;;;;;;8.05;3.80;;;17.50;75.00;;;;;;10366808;28;20049;-61
2022/09/26 19:54:28;;;;;;;9.10;3.70;;;17.40;74.80;;;;;;10366603;28;20042;-60
2022/09/26 19:59:29;;;;;;;11.35;4.20;;;17.40;74.80;;;;;;10369954;28;20018;-60
2022/09/26 20:04:30;;;;;;;8.77;3.50;;;17.40;74.70;;;;;;10371965;28;20109;-60
2022/09/26 20:09:31;;;;;;;8.27;3.92;;;17.40;74.70;;;;;;10351910;28;20045;-61
2022/09/26 20:14:31;;;;;;;11.13;3.92;;;17.40;74.60;;;;;;10371197;28;20061;-60
2022/09/26 20:19:38;;;;;;;7.25;3.60;;;17.40;74.50;;;;;;10378366;28;20088;-60
2022/09/26 20:24:38;;;;;;;6.20;2.97;;;17.40;74.40;;;;;;10364020;28;20045;-60
2022/09/26 20:34:59;;;;;;;8.40;4.03;;;17.40;74.30;;;;;;10365086;28;20653;-60
2022/09/26 20:40:04;;;;;;;6.05;2.35;;;17.30;74.20;;;;;;10368591;28;20042;-60
2022/09/26 20:45:13;;;;;;;6.78;3.30;;;17.40;74.10;;;;;;10369020;28;20034;-60
2022/09/26 20:50:18;;;;;;;5.15;3.47;;;17.30;74.10;;;;;;10365859;28;20018;-60
2022/09/26 20:55:19;;;;;;;5.82;2.45;;;17.30;74.00;;;;;;10365282;28;20100;-60
2022/09/26 21:00:20;;;;;;;5.82;2.78;;;17.30;74.00;;;;;;10364746;28;20080;-60
2022/09/26 21:05:26;;;;;;;5.60;3.67;;;17.30;73.90;;;;;;10375636;28;20037;-60
2022/09/26 21:10:31;;;;;;;6.57;3.13;;;17.30;73.90;;;;;;10363804;28;20689;-59
2022/09/26 21:15:32;;;;;;;6.70;2.47;;;17.30;73.90;;;;;;10365447;28;20034;-59
2022/09/26 21:20:33;;;;;;;4.57;2.72;;;17.30;73.80;;;;;;10372267;28;20052;-60
2022/09/26 21:25:34;;;;;;;7.00;2.95;;;17.30;73.80;;;;;;10370527;28;20038;-60
2022/09/26 21:30:35;;;;;;;5.63;2.25;;;17.30;73.70;;;;;;10372742;28;20056;-60
2022/09/26 21:35:37;;;;;;;3.67;1.88;;;17.30;73.70;;;;;;10367886;28;20037;-60
2022/09/26 21:40:40;;;;;;;3.58;2.05;;;17.30;73.90;;;;;;10361666;28;20060;-60
2022/09/26 21:45:43;;;;;;;4.10;2.00;;;17.20;74.00;;;;;;10362652;28;20026;-60
2022/09/26 21:50:50;;;;;;;7.57;2.42;;;17.30;73.90;;;;;;10362674;28;20339;-60
2022/09/26 21:55:57;;;;;;;4.78;2.13;;;17.30;73.70;;;;;;10362940;28;20648;-60
2022/09/26 22:00:57;;;;;;;4.28;1.77;;;17.30;73.60;;;;;;10362377;28;20029;-60
2022/09/26 22:05:58;;;;;;;4.75;1.88;;;17.30;73.60;;;;;;10372597;28;20724;-60
2022/09/26 22:10:59;;;;;;;3.47;1.80;;;17.30;73.50;;;;;;10363849;28;20053;-59
2022/09/26 22:16:09;;;;;;;3.03;1.75;;;17.20;73.40;;;;;;10362302;28;20105;-60
2022/09/26 22:21:11;;;;;;;4.03;2.10;;;17.30;73.40;;;;;;10362955;28;20109;-60
2022/09/26 22:26:12;;;;;;;3.28;2.15;;;17.30;73.40;;;;;;10362436;28;20018;-60
2022/09/26 22:31:12;;;;;;;4.97;2.15;;;17.20;73.30;;;;;;10377214;28;20049;-60
2022/09/26 22:36:15;;;;;;;6.05;2.30;;;17.20;73.30;;;;;;10363671;28;20018;-60
2022/09/26 22:41:16;;;;;;;3.13;1.85;;;17.20;73.30;;;;;;10375340;28;20385;-59
2022/09/26 22:46:16;;;;;;;4.15;1.75;;;17.20;73.30;;;;;;10362032;28;20034;-60
2022/09/26 22:51:17;;;;;;;3.30;1.85;;;17.20;73.20;;;;;;10362163;28;20524;-60
2022/09/26 22:56:18;;;;;;;1.83;1.20;;;17.20;73.20;;;;;;10361772;28;20152;-60
2022/09/26 23:01:23;;;;;;;4.30;2.00;;;17.20;73.20;;;;;;10345792;28;20042;-60
2022/09/26 23:06:24;;;;;;;3.80;1.95;;;17.20;73.20;;;;;;10370562;28;20045;-60
2022/09/26 23:11:24;;;;;;;3.38;2.03;;;17.20;73.10;;;;;;10364169;28;20065;-64
2022/09/26 23:16:28;;;;;;;3.35;1.90;;;17.20;73.10;;;;;;10370465;28;20021;-60
2022/09/26 23:21:28;;;;;;;2.70;1.45;;;17.20;73.10;;;;;;10369959;28;20707;-60
2022/09/26 23:26:30;;;;;;;3.17;1.35;;;17.10;73.20;;;;;;10385479;28;20061;-61
2022/09/26 23:31:31;;;;;;;3.45;1.40;;;17.10;73.30;;;;;;10368661;28;20018;-60
2022/09/26 23:36:32;;;;;;;4.80;1.50;;;17.10;73.20;;;;;;10382729;28;20030;-60
2022/09/26 23:41:32;;;;;;;2.42;1.10;;;17.20;73.10;;;;;;10367998;28;20119;-60
2022/09/26 23:46:33;;;;;;;3.13;1.17;;;17.10;73.00;;;;;;10367655;28;20025;-60
2022/09/26 23:51:34;;;;;;;2.25;1.20;;;17.10;73.00;;;;;;10367710;28;20022;-60
2022/09/26 23:56:34;;;;;;;2.97;1.33;;;17.10;72.90;;;;;;10382517;28;20402;-60
